ADDS METAR Data INFO
IDs: Format: Raw Decoded Include TAF

Data at: 0218 UTC 18 Jan 2018

KMKC 180154Z 20009KT 10SM CLR M06/M12 A3049 RMK AO2 SLP341 T10611122
KMKC 180054Z 20009KT 10SM CLR M06/M12 A3050 RMK AO2 SLP344 T10561122
KMKC 172354Z 20008KT 10SM CLR M06/M13 A3051 RMK AO2 SLP347 T10561128 11028 21061 56010
KMKC 172254Z 23009KT 10SM CLR M04/M13 A3052 RMK AO2 SLP349 T10391128
KMKC 172154Z 22012KT 10SM CLR M03/M13 A3053 RMK AO2 SLP351 T10331128
KMKC 172054Z 22013G17KT 10SM CLR M03/M12 A3054 RMK AO2 SLP356 T10331122 56034
KMKC 171954Z 21007KT 10SM CLR M04/M12 A3057 RMK AO2 SLP365 T10391122
KMKC 171854Z 21009KT 10SM CLR M05/M13 A3060 RMK AO2 SLP375 T10501128
KMKC 171754Z 23006KT 10SM CLR M06/M13 A3065 RMK AO2 SLP392 I6000 T10611133 11061 21167 58010
KMKC 171654Z 24006KT 10SM CLR M08/M14 A3067 RMK AO2 SLP402 T10781139
KMKC 171554Z 22006KT 10SM CLR M10/M14 A3068 RMK AO2 SLP405 T11001144
KMKC 171454Z 22005KT 9SM CLR M13/M16 A3068 RMK AO2 SLP405 I3000 T11281161 50000
KMKC 171354Z 00000KT 6SM BR CLR M15/M17 A3068 RMK AO2 SLP405 T11501172
KMKC 171254Z 21003KT 10SM CLR M16/M18 A3068 RMK AO2 SLP407 I1000 T11561183
KMKC 171154Z 20004KT 9SM CLR M17/M19 A3068 RMK AO2 SLP406 T11671194 11139 21167 56006
KMKC 171054Z 20003KT 10SM CLR M16/M19 A3068 RMK AO2 SLP405 T11611189
KMKC 170954Z 23005KT 10SM CLR M16/M18 A3069 RMK AO2 SLP409 T11561183
KMKC 170854Z 22004KT 9SM CLR M16/M18 A3069 RMK AO2 SLP411 T11561183 56008
KMKC 170754Z 19004KT 9SM CLR M15/M18 A3070 RMK AO2 SLP412 T11501183
KMKC 170654Z 00000KT 10SM CLR M14/M18 A3070 RMK AO2 SLP414 T11391178
KMKC 170554Z 22003KT 10SM CLR M14/M18 A3072 RMK AO2 SLP420 T11441183 11128 21150 411171183 58005
KMKC 170454Z 00000KT 10SM CLR M14/M18 A3072 RMK AO2 SLP422 T11391183
KMKC 170354Z 00000KT 10SM CLR M14/M18 A3073 RMK AO2 SLP424 T11391178
KMKC 170254Z 28003KT 10SM CLR M13/M18 A3074 RMK AO2 SLP426 T11331183 58002
KMKC 170154Z 27004KT 10SM CLR M13/M18 A3074 RMK AO2 SLP429 T11331183
KMKC 170054Z 28003KT 10SM CLR M14/M18 A3074 RMK AO2 SLP429 T11391183
KMKC 162354Z 31005KT 10SM CLR M13/M18 A3074 RMK AO2 SLP429 T11281178 11117 21139 53002
KMKC 162254Z 29007KT 10SM FEW021 M12/M18 A3074 RMK AO2 SLP426 T11221178
KMKC 162154Z 28007KT 10SM FEW021 M12/M17 A3074 RMK AO2 SLP427 T11221172
KMKC 162138Z 29008KT 10SM BKN022 M12/M17 A3074 RMK AO2 T11221172
KMKC 162054Z 29010KT 10SM FEW023 M12/M17 A3074 RMK AO2 SLP426 T11171172 56013
KMKC 162002Z 28008KT 10SM SCT024 M12/M18 A3074 RMK AO2 T11221178
KMKC 161954Z 28006KT 10SM BKN024 M12/M18 A3074 RMK AO2 SLP428 T11221178
KMKC 161925Z 28010KT 10SM BKN024 M13/M18 A3075 RMK AO2 T11281183
KMKC 161854Z 28009KT 10SM FEW024 M13/M18 A3075 RMK AO2 SLP432 T11281178
KMKC 161754Z 30008KT 10SM CLR M14/M19 A3078 RMK AO2 SLP439 T11391194 11139 21183 58003
KMKC 161722Z 31009KT 10SM SCT028 M15/M20 A3079 RMK AO2 T11501200
KMKC 161654Z 30011KT 10SM SCT020 OVC029 M15/M20 A3079 RMK AO2 SLP447 T11501200
KMKC 161626Z 30010KT 10SM BKN023 OVC031 M16/M21 A3080 RMK AO2 T11561206
KMKC 161554Z 32009KT 8SM OVC031 M17/M21 A3078 RMK AO2 SLP444 T11671211
KMKC 161552Z 32010KT 7SM OVC031 M17/M21 A3078 RMK AO2
KMKC 161454Z 31012G17KT 6SM HZ OVC028 M17/M22 A3077 RMK AO2 SLP439 T11721217 53006